sensor_id;sensor_type;location;lat;lon;timestamp;P1;durP1;ratioP1;P2;durP2;ratioP2
7160;SDS011;3622;53.576;9.978;2023-04-01T00:00:05;9.87;;;5.90;;
7160;SDS011;3622;53.576;9.978;2023-04-01T00:02:32;7.60;;;5.70;;
7160;SDS011;3622;53.576;9.978;2023-04-01T00:04:58;16.30;;;7.53;;
7160;SDS011;3622;53.576;9.978;2023-04-01T00:07:24;9.77;;;6.10;;
7160;SDS011;3622;53.576;9.978;2023-04-01T00:09:50;15.57;;;6.33;;
7160;SDS011;3622;53.576;9.978;2023-04-01T00:12:16;11.37;;;6.20;;
7160;SDS011;3622;53.576;9.978;2023-04-01T00:14:42;11.77;;;6.33;;
7160;SDS011;3622;53.576;9.978;2023-04-01T00:17:08;15.30;;;6.00;;
7160;SDS011;3622;53.576;9.978;2023-04-01T00:19:34;12.77;;;6.10;;
7160;SDS011;3622;53.576;9.978;2023-04-01T00:22:00;8.77;;;6.20;;
7160;SDS011;3622;53.576;9.978;2023-04-01T00:24:26;13.97;;;6.73;;
7160;SDS011;3622;53.576;9.978;2023-04-01T00:26:52;12.67;;;6.80;;
7160;SDS011;3622;53.576;9.978;2023-04-01T00:29:18;13.87;;;7.10;;
7160;SDS011;3622;53.576;9.978;2023-04-01T00:31:44;12.47;;;6.37;;
7160;SDS011;3622;53.576;9.978;2023-04-01T00:34:11;12.90;;;6.60;;
7160;SDS011;3622;53.576;9.978;2023-04-01T00:36:37;16.73;;;6.47;;
7160;SDS011;3622;53.576;9.978;2023-04-01T00:39:03;10.33;;;5.63;;
7160;SDS011;3622;53.576;9.978;2023-04-01T00:41:29;14.57;;;6.90;;
7160;SDS011;3622;53.576;9.978;2023-04-01T00:44:16;16.23;;;6.30;;
7160;SDS011;3622;53.576;9.978;2023-04-01T00:46:43;13.37;;;6.83;;
7160;SDS011;3622;53.576;9.978;2023-04-01T00:49:09;9.17;;;5.80;;
7160;SDS011;3622;53.576;9.978;2023-04-01T00:51:35;16.60;;;7.80;;
7160;SDS011;3622;53.576;9.978;2023-04-01T00:54:03;11.30;;;6.27;;
7160;SDS011;3622;53.576;9.978;2023-04-01T00:56:30;14.90;;;7.60;;
7160;SDS011;3622;53.576;9.978;2023-04-01T00:59:01;16.80;;;6.77;;
7160;SDS011;3622;53.576;9.978;2023-04-01T01:01:28;10.63;;;6.20;;
7160;SDS011;3622;53.576;9.978;2023-04-01T01:03:56;12.43;;;6.80;;
7160;SDS011;3622;53.576;9.978;2023-04-01T01:06:32;9.83;;;5.50;;
7160;SDS011;3622;53.576;9.978;2023-04-01T01:11:40;10.80;;;5.87;;
7160;SDS011;3622;53.576;9.978;2023-04-01T01:14:14;15.40;;;6.47;;
7160;SDS011;3622;53.576;9.978;2023-04-01T01:16:46;9.53;;;5.53;;
7160;SDS011;3622;53.576;9.978;2023-04-01T01:27:03;11.53;;;6.13;;
7160;SDS011;3622;53.576;9.978;2023-04-01T01:32:20;6.33;;;4.70;;
7160;SDS011;3622;53.576;9.978;2023-04-01T01:34:50;8.60;;;5.77;;
7160;SDS011;3622;53.576;9.978;2023-04-01T01:37:19;8.27;;;5.53;;
7160;SDS011;3622;53.576;9.978;2023-04-01T01:39:50;7.57;;;5.10;;
7160;SDS011;3622;53.576;9.978;2023-04-01T01:42:17;12.83;;;5.93;;
7160;SDS011;3622;53.576;9.978;2023-04-01T01:44:44;11.93;;;5.13;;
7160;SDS011;3622;53.576;9.978;2023-04-01T01:47:11;22.87;;;12.13;;
7160;SDS011;3622;53.576;9.978;2023-04-01T01:49:38;10.67;;;6.40;;
7160;SDS011;3622;53.576;9.978;2023-04-01T01:52:05;12.83;;;6.07;;
7160;SDS011;3622;53.576;9.978;2023-04-01T01:54:31;10.73;;;5.63;;
7160;SDS011;3622;53.576;9.978;2023-04-01T01:57:04;9.50;;;5.17;;
7160;SDS011;3622;53.576;9.978;2023-04-01T01:59:32;9.10;;;5.30;;
7160;SDS011;3622;53.576;9.978;2023-04-01T02:02:00;13.20;;;5.80;;
7160;SDS011;3622;53.576;9.978;2023-04-01T02:04:32;13.67;;;5.30;;
7160;SDS011;3622;53.576;9.978;2023-04-01T02:07:02;11.13;;;5.63;;
7160;SDS011;3622;53.576;9.978;2023-04-01T02:09:30;8.90;;;5.00;;
7160;SDS011;3622;53.576;9.978;2023-04-01T02:11:57;7.80;;;5.83;;
7160;SDS011;3622;53.576;9.978;2023-04-01T02:14:23;17.07;;;5.90;;
7160;SDS011;3622;53.576;9.978;2023-04-01T02:16:57;8.90;;;5.30;;
7160;SDS011;3622;53.576;9.978;2023-04-01T02:19:25;6.30;;;4.83;;
7160;SDS011;3622;53.576;9.978;2023-04-01T02:21:53;6.90;;;4.63;;
7160;SDS011;3622;53.576;9.978;2023-04-01T02:24:21;6.87;;;4.93;;
7160;SDS011;3622;53.576;9.978;2023-04-01T02:26:49;7.43;;;4.03;;
7160;SDS011;3622;53.576;9.978;2023-04-01T02:29:16;6.50;;;5.20;;
7160;SDS011;3622;53.576;9.978;2023-04-01T02:31:43;8.07;;;5.00;;
7160;SDS011;3622;53.576;9.978;2023-04-01T02:34:09;5.53;;;5.00;;
7160;SDS011;3622;53.576;9.978;2023-04-01T02:36:36;5.57;;;4.07;;
7160;SDS011;3622;53.576;9.978;2023-04-01T02:39:02;9.33;;;4.70;;
7160;SDS011;3622;53.576;9.978;2023-04-01T02:41:29;6.07;;;4.40;;
7160;SDS011;3622;53.576;9.978;2023-04-01T02:43:55;4.97;;;4.47;;
7160;SDS011;3622;53.576;9.978;2023-04-01T02:46:23;6.83;;;4.57;;
7160;SDS011;3622;53.576;9.978;2023-04-01T02:48:49;6.77;;;4.47;;
7160;SDS011;3622;53.576;9.978;2023-04-01T02:51:15;7.10;;;4.50;;
7160;SDS011;3622;53.576;9.978;2023-04-01T02:53:41;5.00;;;4.50;;
7160;SDS011;3622;53.576;9.978;2023-04-01T02:56:07;5.70;;;4.37;;
7160;SDS011;3622;53.576;9.978;2023-04-01T02:58:33;5.70;;;5.10;;
7160;SDS011;3622;53.576;9.978;2023-04-01T03:00:59;14.13;;;8.57;;
7160;SDS011;3622;53.576;9.978;2023-04-01T03:03:25;10.07;;;6.20;;
7160;SDS011;3622;53.576;9.978;2023-04-01T03:05:51;12.23;;;7.90;;
7160;SDS011;3622;53.576;9.978;2023-04-01T03:08:20;8.77;;;5.53;;
7160;SDS011;3622;53.576;9.978;2023-04-01T03:10:46;11.30;;;6.80;;
7160;SDS011;3622;53.576;9.978;2023-04-01T03:13:12;8.50;;;6.10;;
7160;SDS011;3622;53.576;9.978;2023-04-01T03:15:38;11.90;;;6.67;;
7160;SDS011;3622;53.576;9.978;2023-04-01T03:18:04;9.57;;;5.60;;
7160;SDS011;3622;53.576;9.978;2023-04-01T03:20:30;13.30;;;5.80;;
7160;SDS011;3622;53.576;9.978;2023-04-01T03:22:56;9.40;;;5.50;;
7160;SDS011;3622;53.576;9.978;2023-04-01T03:25:22;6.53;;;5.30;;
7160;SDS011;3622;53.576;9.978;2023-04-01T03:27:48;8.13;;;5.50;;
7160;SDS011;3622;53.576;9.978;2023-04-01T03:30:14;7.93;;;5.23;;
7160;SDS011;3622;53.576;9.978;2023-04-01T03:32:40;6.80;;;5.40;;
7160;SDS011;3622;53.576;9.978;2023-04-01T03:35:06;7.77;;;5.50;;
7160;SDS011;3622;53.576;9.978;2023-04-01T03:37:34;11.03;;;5.63;;
7160;SDS011;3622;53.576;9.978;2023-04-01T03:40:00;9.33;;;5.37;;
7160;SDS011;3622;53.576;9.978;2023-04-01T03:42:26;10.40;;;5.70;;
7160;SDS011;3622;53.576;9.978;2023-04-01T03:44:52;12.27;;;5.63;;
7160;SDS011;3622;53.576;9.978;2023-04-01T03:47:18;7.73;;;5.63;;
7160;SDS011;3622;53.576;9.978;2023-04-01T03:49:44;6.30;;;5.20;;
7160;SDS011;3622;53.576;9.978;2023-04-01T03:52:10;9.23;;;5.30;;
7160;SDS011;3622;53.576;9.978;2023-04-01T03:54:37;11.63;;;6.20;;
7160;SDS011;3622;53.576;9.978;2023-04-01T03:57:03;8.53;;;5.20;;
7160;SDS011;3622;53.576;9.978;2023-04-01T03:59:29;10.33;;;6.00;;
7160;SDS011;3622;53.576;9.978;2023-04-01T04:01:55;8.73;;;5.00;;
7160;SDS011;3622;53.576;9.978;2023-04-01T04:04:21;7.20;;;5.67;;
7160;SDS011;3622;53.576;9.978;2023-04-01T04:06:47;8.10;;;5.27;;
7160;SDS011;3622;53.576;9.978;2023-04-01T04:09:13;7.90;;;5.70;;
7160;SDS011;3622;53.576;9.978;2023-04-01T04:11:39;14.97;;;5.73;;
7160;SDS011;3622;53.576;9.978;2023-04-01T04:14:05;9.63;;;5.50;;
7160;SDS011;3622;53.576;9.978;2023-04-01T04:16:31;8.20;;;6.20;;
7160;SDS011;3622;53.576;9.978;2023-04-01T04:18:57;8.93;;;6.13;;
7160;SDS011;3622;53.576;9.978;2023-04-01T04:21:23;9.83;;;6.33;;
7160;SDS011;3622;53.576;9.978;2023-04-01T04:23:49;7.73;;;5.90;;
7160;SDS011;3622;53.576;9.978;2023-04-01T04:26:15;6.63;;;5.53;;
7160;SDS011;3622;53.576;9.978;2023-04-01T04:28:42;7.77;;;6.10;;
7160;SDS011;3622;53.576;9.978;2023-04-01T04:31:08;11.17;;;6.20;;
7160;SDS011;3622;53.576;9.978;2023-04-01T04:33:34;6.30;;;5.33;;
7160;SDS011;3622;53.576;9.978;2023-04-01T04:36:01;10.77;;;6.20;;
7160;SDS011;3622;53.576;9.978;2023-04-01T04:38:27;10.13;;;6.30;;
7160;SDS011;3622;53.576;9.978;2023-04-01T04:40:54;10.67;;;6.50;;
7160;SDS011;3622;53.576;9.978;2023-04-01T04:43:20;11.10;;;5.97;;
7160;SDS011;3622;53.576;9.978;2023-04-01T04:45:46;8.90;;;5.90;;
7160;SDS011;3622;53.576;9.978;2023-04-01T04:48:13;11.27;;;6.63;;
7160;SDS011;3622;53.576;9.978;2023-04-01T04:50:43;9.90;;;6.33;;
7160;SDS011;3622;53.576;9.978;2023-04-01T04:53:09;12.27;;;7.00;;
7160;SDS011;3622;53.576;9.978;2023-04-01T04:55:36;9.10;;;6.07;;
7160;SDS011;3622;53.576;9.978;2023-04-01T04:58:01;7.83;;;5.80;;
7160;SDS011;3622;53.576;9.978;2023-04-01T05:00:27;13.47;;;6.87;;
7160;SDS011;3622;53.576;9.978;2023-04-01T05:02:53;9.43;;;5.90;;
7160;SDS011;3622;53.576;9.978;2023-04-01T05:05:19;11.43;;;6.23;;
7160;SDS011;3622;53.576;9.978;2023-04-01T05:07:45;10.23;;;6.30;;
7160;SDS011;3622;53.576;9.978;2023-04-01T05:10:11;7.30;;;5.80;;
7160;SDS011;3622;53.576;9.978;2023-04-01T05:12:37;9.60;;;6.63;;
7160;SDS011;3622;53.576;9.978;2023-04-01T05:15:04;9.20;;;6.23;;
7160;SDS011;3622;53.576;9.978;2023-04-01T05:17:30;7.63;;;5.93;;
7160;SDS011;3622;53.576;9.978;2023-04-01T05:19:56;9.37;;;6.40;;
7160;SDS011;3622;53.576;9.978;2023-04-01T05:22:22;7.90;;;5.57;;
7160;SDS011;3622;53.576;9.978;2023-04-01T05:24:49;7.33;;;5.13;;
7160;SDS011;3622;53.576;9.978;2023-04-01T05:27:15;9.13;;;6.13;;
7160;SDS011;3622;53.576;9.978;2023-04-01T05:29:41;7.87;;;5.67;;
7160;SDS011;3622;53.576;9.978;2023-04-01T05:32:07;3.73;;;1.53;;
7160;SDS011;3622;53.576;9.978;2023-04-01T05:34:33;1.73;;;1.63;;
7160;SDS011;3622;53.576;9.978;2023-04-01T05:36:59;9.70;;;1.13;;
7160;SDS011;3622;53.576;9.978;2023-04-01T05:39:25;1.10;;;1.00;;
7160;SDS011;3622;53.576;9.978;2023-04-01T05:41:51;0.97;;;0.87;;
7160;SDS011;3622;53.576;9.978;2023-04-01T05:44:17;0.80;;;0.80;;
7160;SDS011;3622;53.576;9.978;2023-04-01T05:46:43;0.80;;;0.80;;
7160;SDS011;3622;53.576;9.978;2023-04-01T05:49:09;1.50;;;1.40;;
7160;SDS011;3622;53.576;9.978;2023-04-01T05:51:35;0.90;;;0.80;;
7160;SDS011;3622;53.576;9.978;2023-04-01T05:54:01;1.43;;;0.90;;
7160;SDS011;3622;53.576;9.978;2023-04-01T05:56:27;1.43;;;1.10;;
7160;SDS011;3622;53.576;9.978;2023-04-01T05:58:53;1.43;;;1.23;;
7160;SDS011;3622;53.576;9.978;2023-04-01T06:01:19;1.03;;;0.93;;
7160;SDS011;3622;53.576;9.978;2023-04-01T06:03:45;1.30;;;1.20;;
7160;SDS011;3622;53.576;9.978;2023-04-01T06:06:27;1.33;;;1.23;;
7160;SDS011;3622;53.576;9.978;2023-04-01T06:08:54;1.30;;;0.93;;
7160;SDS011;3622;53.576;9.978;2023-04-01T06:11:38;1.33;;;1.23;;
7160;SDS011;3622;53.576;9.978;2023-04-01T06:24:37;1.47;;;1.37;;
7160;SDS011;3622;53.576;9.978;2023-04-01T06:27:11;1.10;;;1.00;;
7160;SDS011;3622;53.576;9.978;2023-04-01T06:29:47;1.40;;;1.30;;
7160;SDS011;3622;53.576;9.978;2023-04-01T06:45:26;1.13;;;1.03;;
7160;SDS011;3622;53.576;9.978;2023-04-01T06:53:14;1.20;;;1.10;;
7160;SDS011;3622;53.576;9.978;2023-04-01T06:55:43;0.97;;;0.90;;
7160;SDS011;3622;53.576;9.978;2023-04-01T06:58:34;0.80;;;0.73;;
7160;SDS011;3622;53.576;9.978;2023-04-01T07:00:57;0.80;;;0.70;;
7160;SDS011;3622;53.576;9.978;2023-04-01T07:03:32;0.70;;;0.70;;
7160;SDS011;3622;53.576;9.978;2023-04-01T07:06:02;0.90;;;0.60;;
7160;SDS011;3622;53.576;9.978;2023-04-01T07:08:29;0.80;;;0.60;;
7160;SDS011;3622;53.576;9.978;2023-04-01T07:11:02;1.00;;;0.90;;
7160;SDS011;3622;53.576;9.978;2023-04-01T07:18:51;0.90;;;0.77;;
7160;SDS011;3622;53.576;9.978;2023-04-01T07:21:23;1.33;;;0.60;;
7160;SDS011;3622;53.576;9.978;2023-04-01T07:23:51;0.80;;;0.70;;
7160;SDS011;3622;53.576;9.978;2023-04-01T07:26:19;0.70;;;0.50;;
7160;SDS011;3622;53.576;9.978;2023-04-01T07:28:45;0.67;;;0.53;;
7160;SDS011;3622;53.576;9.978;2023-04-01T07:31:30;0.90;;;0.50;;
7160;SDS011;3622;53.576;9.978;2023-04-01T07:42:04;0.70;;;0.60;;
7160;SDS011;3622;53.576;9.978;2023-04-01T07:44:35;0.70;;;0.60;;
7160;SDS011;3622;53.576;9.978;2023-04-01T07:49:58;0.80;;;0.70;;
7160;SDS011;3622;53.576;9.978;2023-04-01T07:52:48;0.80;;;0.60;;
7160;SDS011;3622;53.576;9.978;2023-04-01T07:55:21;0.80;;;0.60;;
7160;SDS011;3622;53.576;9.978;2023-04-01T07:58:10;0.63;;;0.47;;
7160;SDS011;3622;53.576;9.978;2023-04-01T08:03:10;1.90;;;0.60;;
7160;SDS011;3622;53.576;9.978;2023-04-01T08:08:31;1.00;;;0.60;;
7160;SDS011;3622;53.576;9.978;2023-04-01T08:18:47;0.90;;;0.57;;
7160;SDS011;3622;53.576;9.978;2023-04-01T08:21:25;0.70;;;0.60;;
7160;SDS011;3622;53.576;9.978;2023-04-01T08:23:56;0.80;;;0.50;;
7160;SDS011;3622;53.576;9.978;2023-04-01T08:29:06;0.70;;;0.40;;
7160;SDS011;3622;53.576;9.978;2023-04-01T08:31:38;0.70;;;0.40;;
7160;SDS011;3622;53.576;9.978;2023-04-01T08:34:09;0.80;;;0.47;;
7160;SDS011;3622;53.576;9.978;2023-04-01T08:36:40;0.70;;;0.40;;
7160;SDS011;3622;53.576;9.978;2023-04-01T08:39:12;0.63;;;0.40;;
7160;SDS011;3622;53.576;9.978;2023-04-01T08:49:26;0.60;;;0.40;;
7160;SDS011;3622;53.576;9.978;2023-04-01T08:52:02;0.70;;;0.50;;
7160;SDS011;3622;53.576;9.978;2023-04-01T08:59:37;1.20;;;0.70;;
7160;SDS011;3622;53.576;9.978;2023-04-01T09:05:25;0.80;;;0.60;;
7160;SDS011;3622;53.576;9.978;2023-04-01T09:12:57;0.70;;;0.47;;
7160;SDS011;3622;53.576;9.978;2023-04-01T09:28:41;0.70;;;0.43;;
7160;SDS011;3622;53.576;9.978;2023-04-01T09:31:12;0.70;;;0.60;;
7160;SDS011;3622;53.576;9.978;2023-04-01T09:38:57;1.20;;;0.60;;
7160;SDS011;3622;53.576;9.978;2023-04-01T09:41:31;0.60;;;0.40;;
7160;SDS011;3622;53.576;9.978;2023-04-01T09:44:07;1.13;;;0.40;;
7160;SDS011;3622;53.576;9.978;2023-04-01T09:51:41;0.90;;;0.77;;
7160;SDS011;3622;53.576;9.978;2023-04-01T10:12:50;0.70;;;0.50;;
7160;SDS011;3622;53.576;9.978;2023-04-01T10:15:36;0.80;;;0.70;;
7160;SDS011;3622;53.576;9.978;2023-04-01T10:23:18;0.90;;;0.63;;
7160;SDS011;3622;53.576;9.978;2023-04-01T10:28:34;1.17;;;0.60;;
7160;SDS011;3622;53.576;9.978;2023-04-01T10:33:52;1.37;;;0.50;;
7160;SDS011;3622;53.576;9.978;2023-04-01T10:36:46;0.60;;;0.30;;
7160;SDS011;3622;53.576;9.978;2023-04-01T10:39:22;0.70;;;0.40;;
7160;SDS011;3622;53.576;9.978;2023-04-01T10:47:39;0.80;;;0.40;;
7160;SDS011;3622;53.576;9.978;2023-04-01T10:55:37;0.60;;;0.40;;
7160;SDS011;3622;53.576;9.978;2023-04-01T11:08:25;0.60;;;0.50;;
7160;SDS011;3622;53.576;9.978;2023-04-01T11:16:06;0.80;;;0.50;;
7160;SDS011;3622;53.576;9.978;2023-04-01T11:23:50;0.70;;;0.60;;
7160;SDS011;3622;53.576;9.978;2023-04-01T11:39:01;0.80;;;0.70;;
7160;SDS011;3622;53.576;9.978;2023-04-01T11:44:16;2.47;;;1.37;;
7160;SDS011;3622;53.576;9.978;2023-04-01T11:59:54;1.50;;;1.40;;
7160;SDS011;3622;53.576;9.978;2023-04-01T12:02:28;1.90;;;1.80;;
7160;SDS011;3622;53.576;9.978;2023-04-01T12:05:04;1.83;;;1.73;;
7160;SDS011;3622;53.576;9.978;2023-04-01T12:12:54;3.27;;;1.50;;
7160;SDS011;3622;53.576;9.978;2023-04-01T12:20:55;1.50;;;1.40;;
7160;SDS011;3622;53.576;9.978;2023-04-01T12:33:44;3.13;;;2.40;;
7160;SDS011;3622;53.576;9.978;2023-04-01T12:49:12;4.77;;;2.80;;
7160;SDS011;3622;53.576;9.978;2023-04-01T12:51:48;2.60;;;2.40;;
7160;SDS011;3622;53.576;9.978;2023-04-01T12:57:13;2.87;;;2.60;;
7160;SDS011;3622;53.576;9.978;2023-04-01T13:02:29;4.03;;;2.53;;
7160;SDS011;3622;53.576;9.978;2023-04-01T13:05:09;3.33;;;3.00;;
7160;SDS011;3622;53.576;9.978;2023-04-01T13:18:05;3.30;;;1.80;;
7160;SDS011;3622;53.576;9.978;2023-04-01T13:20:51;2.20;;;2.10;;
7160;SDS011;3622;53.576;9.978;2023-04-01T13:33:25;4.57;;;1.57;;
7160;SDS011;3622;53.576;9.978;2023-04-01T13:36:04;1.73;;;1.30;;
7160;SDS011;3622;53.576;9.978;2023-04-01T13:38:52;2.90;;;2.23;;
7160;SDS011;3622;53.576;9.978;2023-04-01T13:43:58;1.90;;;1.80;;
7160;SDS011;3622;53.576;9.978;2023-04-01T13:49:19;2.50;;;2.20;;
7160;SDS011;3622;53.576;9.978;2023-04-01T14:02:47;3.47;;;2.27;;
7160;SDS011;3622;53.576;9.978;2023-04-01T14:08:14;3.20;;;3.00;;
7160;SDS011;3622;53.576;9.978;2023-04-01T14:11:16;3.03;;;2.67;;
7160;SDS011;3622;53.576;9.978;2023-04-01T14:16:14;3.50;;;2.60;;
7160;SDS011;3622;53.576;9.978;2023-04-01T14:36:46;4.00;;;3.00;;
7160;SDS011;3622;53.576;9.978;2023-04-01T14:42:14;7.67;;;3.80;;
7160;SDS011;3622;53.576;9.978;2023-04-01T14:50:40;2.70;;;2.50;;
7160;SDS011;3622;53.576;9.978;2023-04-01T14:57:57;3.23;;;2.10;;
7160;SDS011;3622;53.576;9.978;2023-04-01T15:00:24;6.50;;;3.60;;
7160;SDS011;3622;53.576;9.978;2023-04-01T15:02:57;3.13;;;2.93;;
7160;SDS011;3622;53.576;9.978;2023-04-01T15:08:18;7.53;;;4.13;;
7160;SDS011;3622;53.576;9.978;2023-04-01T15:10:49;3.97;;;3.60;;
7160;SDS011;3622;53.576;9.978;2023-04-01T15:18:21;3.40;;;2.80;;
7160;SDS011;3622;53.576;9.978;2023-04-01T15:20:55;4.20;;;3.80;;
7160;SDS011;3622;53.576;9.978;2023-04-01T15:25:57;4.93;;;4.13;;
7160;SDS011;3622;53.576;9.978;2023-04-01T15:42:21;4.40;;;3.70;;
7160;SDS011;3622;53.576;9.978;2023-04-01T15:47:31;10.40;;;4.80;;
7160;SDS011;3622;53.576;9.978;2023-04-01T15:57:43;9.93;;;4.00;;
7160;SDS011;3622;53.576;9.978;2023-04-01T16:02:51;6.93;;;5.03;;
7160;SDS011;3622;53.576;9.978;2023-04-01T16:16:27;12.40;;;5.57;;
7160;SDS011;3622;53.576;9.978;2023-04-01T16:23:55;10.83;;;5.00;;
7160;SDS011;3622;53.576;9.978;2023-04-01T16:31:34;6.87;;;5.20;;
7160;SDS011;3622;53.576;9.978;2023-04-01T16:34:04;6.33;;;4.17;;
7160;SDS011;3622;53.576;9.978;2023-04-01T16:36:35;3.40;;;3.10;;
7160;SDS011;3622;53.576;9.978;2023-04-01T16:41:42;9.10;;;5.03;;
7160;SDS011;3622;53.576;9.978;2023-04-01T16:44:22;6.77;;;4.60;;
7160;SDS011;3622;53.576;9.978;2023-04-01T16:46:52;9.67;;;4.60;;
7160;SDS011;3622;53.576;9.978;2023-04-01T16:49:30;11.07;;;5.00;;
7160;SDS011;3622;53.576;9.978;2023-04-01T16:52:00;8.90;;;5.30;;
7160;SDS011;3622;53.576;9.978;2023-04-01T16:54:35;8.97;;;4.53;;
7160;SDS011;3622;53.576;9.978;2023-04-01T16:57:03;7.83;;;5.40;;
7160;SDS011;3622;53.576;9.978;2023-04-01T17:04:31;10.17;;;4.13;;
7160;SDS011;3622;53.576;9.978;2023-04-01T17:07:01;8.47;;;4.20;;
7160;SDS011;3622;53.576;9.978;2023-04-01T17:15:04;3.47;;;3.27;;
7160;SDS011;3622;53.576;9.978;2023-04-01T17:17:34;6.43;;;4.60;;
7160;SDS011;3622;53.576;9.978;2023-04-01T17:20:24;7.43;;;5.13;;
7160;SDS011;3622;53.576;9.978;2023-04-01T17:22:53;11.03;;;5.00;;
7160;SDS011;3622;53.576;9.978;2023-04-01T17:27:51;4.43;;;2.50;;
7160;SDS011;3622;53.576;9.978;2023-04-01T17:38:04;6.33;;;3.63;;
7160;SDS011;3622;53.576;9.978;2023-04-01T17:43:07;3.47;;;3.13;;
7160;SDS011;3622;53.576;9.978;2023-04-01T18:03:18;2.57;;;2.37;;
7160;SDS011;3622;53.576;9.978;2023-04-01T18:06:06;3.00;;;2.73;;
7160;SDS011;3622;53.576;9.978;2023-04-01T18:11:12;3.97;;;2.27;;
7160;SDS011;3622;53.576;9.978;2023-04-01T18:13:46;2.30;;;2.10;;
7160;SDS011;3622;53.576;9.978;2023-04-01T18:21:24;1.90;;;1.77;;
7160;SDS011;3622;53.576;9.978;2023-04-01T18:23:55;4.13;;;3.37;;
7160;SDS011;3622;53.576;9.978;2023-04-01T18:26:32;5.60;;;2.73;;
7160;SDS011;3622;53.576;9.978;2023-04-01T18:28:59;2.57;;;2.37;;
7160;SDS011;3622;53.576;9.978;2023-04-01T18:31:35;6.60;;;3.23;;
7160;SDS011;3622;53.576;9.978;2023-04-01T18:39:15;4.40;;;2.80;;
7160;SDS011;3622;53.576;9.978;2023-04-01T18:41:47;3.30;;;2.33;;
7160;SDS011;3622;53.576;9.978;2023-04-01T18:49:29;3.77;;;3.47;;
7160;SDS011;3622;53.576;9.978;2023-04-01T18:51:57;7.03;;;3.37;;
7160;SDS011;3622;53.576;9.978;2023-04-01T18:54:31;2.30;;;2.10;;
7160;SDS011;3622;53.576;9.978;2023-04-01T18:57:02;2.40;;;2.20;;
7160;SDS011;3622;53.576;9.978;2023-04-01T18:59:32;4.93;;;3.10;;
7160;SDS011;3622;53.576;9.978;2023-04-01T19:05:00;3.57;;;3.20;;
7160;SDS011;3622;53.576;9.978;2023-04-01T19:10:00;6.17;;;4.37;;
7160;SDS011;3622;53.576;9.978;2023-04-01T19:12:32;6.00;;;4.00;;
7160;SDS011;3622;53.576;9.978;2023-04-01T19:27:52;4.10;;;3.73;;
7160;SDS011;3622;53.576;9.978;2023-04-01T19:35:43;5.47;;;3.20;;
7160;SDS011;3622;53.576;9.978;2023-04-01T19:38:14;2.90;;;2.33;;
7160;SDS011;3622;53.576;9.978;2023-04-01T19:43:42;5.93;;;3.93;;
7160;SDS011;3622;53.576;9.978;2023-04-01T19:49:01;3.50;;;3.20;;
7160;SDS011;3622;53.576;9.978;2023-04-01T19:51:34;4.87;;;3.80;;
7160;SDS011;3622;53.576;9.978;2023-04-01T19:56:52;5.00;;;2.93;;
7160;SDS011;3622;53.576;9.978;2023-04-01T19:59:19;7.10;;;3.10;;
7160;SDS011;3622;53.576;9.978;2023-04-01T20:09:44;5.73;;;3.20;;
7160;SDS011;3622;53.576;9.978;2023-04-01T20:12:19;4.13;;;3.10;;
7160;SDS011;3622;53.576;9.978;2023-04-01T20:14:51;4.90;;;2.73;;
7160;SDS011;3622;53.576;9.978;2023-04-01T20:17:20;5.27;;;2.83;;
7160;SDS011;3622;53.576;9.978;2023-04-01T20:19:53;3.00;;;2.70;;
7160;SDS011;3622;53.576;9.978;2023-04-01T20:24:50;3.50;;;3.20;;
7160;SDS011;3622;53.576;9.978;2023-04-01T20:27:19;3.73;;;2.70;;
7160;SDS011;3622;53.576;9.978;2023-04-01T20:29:55;2.77;;;2.50;;
7160;SDS011;3622;53.576;9.978;2023-04-01T20:32:38;4.03;;;2.60;;
7160;SDS011;3622;53.576;9.978;2023-04-01T20:53:50;5.40;;;2.20;;
7160;SDS011;3622;53.576;9.978;2023-04-01T21:01:41;5.97;;;1.80;;
7160;SDS011;3622;53.576;9.978;2023-04-01T21:04:17;6.43;;;2.80;;
7160;SDS011;3622;53.576;9.978;2023-04-01T21:07:05;2.30;;;1.97;;
7160;SDS011;3622;53.576;9.978;2023-04-01T21:12:24;9.03;;;1.73;;
7160;SDS011;3622;53.576;9.978;2023-04-01T21:20:02;3.80;;;2.47;;
7160;SDS011;3622;53.576;9.978;2023-04-01T21:33:01;4.73;;;1.80;;
7160;SDS011;3622;53.576;9.978;2023-04-01T21:35:42;2.63;;;2.43;;
7160;SDS011;3622;53.576;9.978;2023-04-01T21:54:30;6.00;;;2.80;;
7160;SDS011;3622;53.576;9.978;2023-04-01T21:58:21;6.10;;;2.83;;
7160;SDS011;3622;53.576;9.978;2023-04-01T22:05:09;7.50;;;2.37;;
7160;SDS011;3622;53.576;9.978;2023-04-01T22:07:52;4.33;;;2.03;;
7160;SDS011;3622;53.576;9.978;2023-04-01T22:10:32;2.93;;;1.47;;
7160;SDS011;3622;53.576;9.978;2023-04-01T22:13:06;4.83;;;1.87;;
7160;SDS011;3622;53.576;9.978;2023-04-01T22:18:21;3.77;;;1.70;;
7160;SDS011;3622;53.576;9.978;2023-04-01T22:31:25;4.93;;;1.73;;
7160;SDS011;3622;53.576;9.978;2023-04-01T22:33:59;4.83;;;1.50;;
7160;SDS011;3622;53.576;9.978;2023-04-01T22:39:11;3.97;;;1.37;;
7160;SDS011;3622;53.576;9.978;2023-04-01T22:44:13;2.60;;;1.27;;
7160;SDS011;3622;53.576;9.978;2023-04-01T22:46:51;1.20;;;0.80;;
7160;SDS011;3622;53.576;9.978;2023-04-01T22:49:23;4.30;;;1.60;;
7160;SDS011;3622;53.576;9.978;2023-04-01T22:52:14;3.50;;;1.30;;
7160;SDS011;3622;53.576;9.978;2023-04-01T22:54:43;0.80;;;0.80;;
7160;SDS011;3622;53.576;9.978;2023-04-01T23:04:39;10.07;;;1.60;;
7160;SDS011;3622;53.576;9.978;2023-04-01T23:07:14;1.10;;;0.93;;
7160;SDS011;3622;53.576;9.978;2023-04-01T23:09:45;2.37;;;1.00;;
7160;SDS011;3622;53.576;9.978;2023-04-01T23:12:15;3.43;;;1.20;;
7160;SDS011;3622;53.576;9.978;2023-04-01T23:14:52;5.03;;;1.27;;
7160;SDS011;3622;53.576;9.978;2023-04-01T23:17:28;1.30;;;0.70;;
7160;SDS011;3622;53.576;9.978;2023-04-01T23:20:17;1.70;;;1.00;;
7160;SDS011;3622;53.576;9.978;2023-04-01T23:22:49;2.77;;;1.00;;
7160;SDS011;3622;53.576;9.978;2023-04-01T23:38:29;2.00;;;0.80;;
7160;SDS011;3622;53.576;9.978;2023-04-01T23:40:56;4.60;;;1.10;;
7160;SDS011;3622;53.576;9.978;2023-04-01T23:43:29;7.13;;;1.30;;
7160;SDS011;3622;53.576;9.978;2023-04-01T23:45:56;6.20;;;0.83;;
7160;SDS011;3622;53.576;9.978;2023-04-01T23:48:26;3.27;;;0.90;;
7160;SDS011;3622;53.576;9.978;2023-04-01T23:50:53;1.33;;;1.23;;
7160;SDS011;3622;53.576;9.978;2023-04-01T23:53:21;4.20;;;1.10;;
7160;SDS011;3622;53.576;9.978;2023-04-01T23:55:49;1.10;;;0.87;;
